Terminal Aerodrome Forecast
Issued by NWS

Home | Current Version | Previous Version | Text Only | Print | Product List | Glossary On
Versions: 1 2 3 4 5 6 7 8 9 10 11 12 13 14 15 16 17 18 19 20
000
FTUS45 KPSR 242340 CCA
TAFIWA
TAF COR
KIWA 242340Z 2500/2524 28006KT P6SM SKC
     FM250400 12006KT P6SM BKN250
     FM251900 26008KT P6SM FEW150
      AMD LTD TO CLD VIS AND WIND 2503/2513=

USA.gov is the U.S. government's official web portal to all federal, state and local government web resources and services.